Kuala Terengganu, Malaysia
Current Conditions -  °F | °C
As of 3:00 PM on Friday 24 Oct 2014 (Local Time) from WMKN Reporting Station
Thunderstorm Thunderstorm  
Wind Chill: 82°   Ceiling: 19000
Heat Index: 92°   Visibility: 6mi
Dew Point: 79°   Wind: 2mph
Humidity: 89%   Direction: 190°S
Pressure: 29.8"   Gusts: NA
Location:  5.33°N, 103.14°E
Report Text: WMKN 240700Z 19002KT 9999 -TSRA FEW008 FEW017CB SCT020 BKN190 28/26 Q1009
Loading
Personal Weather Stations






























Interactive Weather Map
Tropical Storm Tracking
New forecast layout! Learn more

10-Day Weather Forecast

Advertisements
Track Severe Weather on mobile